Time;durP1;ratioP1;P1;durP2;ratioP2;P2;SDS_P1;SDS_P2;PMS_P1;PMS_P2;Temp;Humidity;BMP_temperature;BMP_pressure;BME280_temperature;BME280_humidity;BME280_pressure;Samples;Min_cycle;Max_cycle;Signal;HPM_P1;HPM_P2
2023/08/28 00:02:55;;;;;;;1.40;0.60;;;;;;;21.28;55.31;101206.50;10420838;27;96600;-79
2023/08/28 00:07:59;;;;;;;1.02;0.50;;;;;;;21.16;55.91;101201.13;10420642;27;96932;-80
2023/08/28 00:13:03;;;;;;;2.00;0.95;;;;;;;20.91;56.57;101207.25;10420484;27;96858;-79
2023/08/28 00:18:08;;;;;;;0.75;0.55;;;;;;;21.08;56.23;101208.81;10420269;27;97408;-79
2023/08/28 00:23:12;;;;;;;1.17;0.55;;;;;;;20.86;57.08;101213.88;10419785;27;97581;-79
2023/08/28 00:28:15;;;;;;;1.35;0.60;;;;;;;20.88;56.77;101220.00;10419596;27;96879;-79
2023/08/28 00:33:20;;;;;;;1.33;0.60;;;;;;;20.68;57.06;101223.13;10420028;27;96662;-79
2023/08/28 00:38:23;;;;;;;3.20;0.70;;;;;;;20.60;57.33;101230.81;10419628;27;97227;-79
2023/08/28 00:43:26;;;;;;;2.05;0.43;;;;;;;20.44;57.80;101230.94;10419621;27;96793;-79
2023/08/28 00:48:32;;;;;;;0.93;0.47;;;;;;;20.41;57.64;101217.75;10426674;27;96978;-79
2023/08/28 00:53:37;;;;;;;0.98;0.60;;;;;;;20.34;57.56;101217.28;10425031;28;96646;-79
2023/08/28 00:58:41;;;;;;;2.05;0.68;;;;;;;20.24;57.74;101225.97;10425761;27;97061;-79
2023/08/28 01:03:45;;;;;;;3.63;0.63;;;;;;;20.22;57.76;101218.06;10425758;27;97085;-79
2023/08/28 01:08:58;;;;;;;0.63;0.45;;;;;;;20.07;57.98;101219.03;10424521;28;96676;-79
2023/08/28 01:14:08;;;;;;;0.73;0.45;;;;;;;20.31;57.46;101216.63;10423253;27;96724;-79
2023/08/28 01:19:27;;;;;;;1.17;0.57;;;;;;;20.04;58.09;101215.69;10424376;27;96936;-79
2023/08/28 01:24:31;;;;;;;2.67;0.68;;;;;;;20.00;58.29;101214.16;10423157;28;97099;-79
2023/08/28 01:29:36;;;;;;;1.25;0.70;;;;;;;19.67;59.41;101206.44;10423602;27;96639;-79
2023/08/28 01:34:40;;;;;;;1.10;0.50;;;;;;;19.87;59.13;101216.78;10423542;27;96712;-79
2023/08/28 01:39:51;;;;;;;0.98;0.75;;;;;;;20.15;58.25;101210.53;10423190;27;96690;-79
2023/08/28 01:44:56;;;;;;;1.40;0.68;;;;;;;20.38;57.63;101210.81;10423384;27;97504;-79
2023/08/28 01:50:00;;;;;;;1.45;0.68;;;;;;;20.14;58.19;101209.66;10423478;27;96865;-79
2023/08/28 01:55:03;;;;;;;3.78;0.70;;;;;;;19.99;58.63;101208.00;10422113;27;97153;-79
2023/08/28 02:00:09;;;;;;;1.58;0.70;;;;;;;19.91;58.83;101204.09;10422349;27;96766;-79
2023/08/28 02:05:13;;;;;;;1.27;0.63;;;;;;;19.68;59.66;101200.19;10412244;27;96870;-79
2023/08/28 02:10:16;;;;;;;3.72;0.70;;;;;;;19.73;58.99;101195.41;10400535;27;96794;-79
2023/08/28 02:15:20;;;;;;;1.90;0.57;;;;;;;19.99;58.70;101188.41;10409661;28;97047;-79
2023/08/28 02:20:23;;;;;;;;;;;;;;;19.85;59.42;101183.09;10377296;22;99127;-79
2023/08/28 02:25:27;;;;;;;2.20;0.57;;;;;;;19.47;59.27;101196.16;10371737;28;97103;-78
2023/08/28 02:30:32;;;;;;;1.43;0.60;;;;;;;19.73;58.83;101206.09;10380443;28;96631;-79
2023/08/28 02:35:35;;;;;;;1.15;0.60;;;;;;;19.41;59.68;101201.00;10369554;28;96621;-78
2023/08/28 02:40:40;;;;;;;1.25;0.63;;;;;;;19.43;59.70;101196.41;10339959;28;97579;-78
2023/08/28 02:45:44;;;;;;;1.17;0.57;;;;;;;19.29;60.05;101194.56;10337714;28;97401;-78
2023/08/28 02:50:49;;;;;;;;;;;;;;;19.20;60.58;101184.44;10339019;28;96563;-78
2023/08/28 02:56:24;;;;;;;0.85;0.38;;;;;;;18.99;60.79;101185.75;10337710;28;97222;-79
2023/08/28 03:01:29;;;;;;;3.20;0.70;;;;;;;18.89;60.39;101182.75;10304602;28;96708;-79
2023/08/28 03:06:35;;;;;;;1.27;0.63;;;;;;;19.12;60.15;101181.38;10336138;28;96815;-79
2023/08/28 03:11:39;;;;;;;1.58;0.68;;;;;;;19.35;59.41;101172.84;10337814;28;96729;-79
2023/08/28 03:16:43;;;;;;;1.48;0.60;;;;;;;19.08;60.02;101164.69;10337514;28;98087;-79
2023/08/28 03:21:47;;;;;;;;;;;;;;;19.07;61.69;101167.47;10338214;28;96895;-79
2023/08/28 03:26:50;;;;;;;0.90;0.65;;;;;;;19.20;60.10;101166.63;10337242;28;96580;-79
2023/08/28 03:31:54;;;;;;;1.63;0.50;;;;;;;19.28;60.00;101174.16;10337917;28;97838;-79
2023/08/28 03:36:58;;;;;;;1.27;0.63;;;;;;;19.40;60.09;101175.22;10336896;28;96692;-79
2023/08/28 03:42:01;;;;;;;1.48;0.60;;;;;;;19.26;60.34;101163.59;10336679;28;96702;-79
2023/08/28 03:47:06;;;;;;;1.50;0.70;;;;;;;19.44;60.06;101161.63;10335181;28;96881;-79
2023/08/28 03:52:09;;;;;;;0.93;0.70;;;;;;;18.87;61.35;101170.47;10336392;28;96576;-79
2023/08/28 03:57:12;;;;;;;1.27;0.50;;;;;;;18.79;61.45;101164.69;10336065;28;96698;-79
2023/08/28 04:02:17;;;;;;;3.63;0.60;;;;;;;18.63;61.71;101171.88;10336275;28;96993;-79
2023/08/28 04:07:24;;;;;;;1.75;0.80;;;;;;;18.60;61.23;101167.59;10337173;28;96668;-79
2023/08/28 04:12:28;;;;;;;1.33;0.70;;;;;;;18.56;61.51;101167.88;10322594;28;96937;-79
2023/08/28 04:17:33;;;;;;;2.80;0.68;;;;;;;18.53;61.87;101168.91;10293619;28;96799;-78
2023/08/28 04:22:37;;;;;;;;;;;;;;;18.51;63.06;101167.25;10317812;28;96696;-78
2023/08/28 04:27:42;;;;;;;1.23;0.70;;;;;;;18.63;61.49;101175.41;10335357;28;96804;-79
2023/08/28 04:32:46;;;;;;;;;;;;;;;18.47;62.24;101176.41;10336017;28;96703;-79
2023/08/28 04:37:51;;;;;;;1.67;0.88;;;;;;;18.21;62.30;101184.97;10335129;28;97598;-79
2023/08/28 04:42:54;;;;;;;;;;;;;;;18.48;62.79;101189.63;10335759;28;97026;-79
2023/08/28 04:47:59;;;;;;;1.52;0.60;;;;;;;18.29;62.18;101194.25;10334992;28;96638;-79
2023/08/28 04:53:02;;;;;;;;;;;;;;;18.37;63.11;101186.66;10335248;28;96704;-79
2023/08/28 04:58:06;;;;;;;0.70;0.60;;;;;;;18.45;61.89;101184.44;10335232;28;97378;-78
2023/08/28 05:03:11;;;;;;;1.23;0.60;;;;;;;18.25;62.54;101186.53;10334494;28;96559;-78
2023/08/28 05:08:15;;;;;;;1.83;1.15;;;;;;;18.31;62.01;101196.81;10334573;28;96797;-79
2023/08/28 05:13:19;;;;;;;0.82;0.65;;;;;;;18.11;62.45;101189.94;10334166;28;97016;-78
2023/08/28 05:18:24;;;;;;;0.93;0.80;;;;;;;18.32;62.27;101185.19;10333871;28;96833;-78
2023/08/28 05:23:27;;;;;;;;;;;;;;;18.14;63.27;101181.81;10334885;28;96911;-79
2023/08/28 05:28:31;;;;;;;1.42;1.02;;;;;;;18.18;62.27;101181.53;10333702;28;97065;-79
2023/08/28 05:33:36;;;;;;;1.23;0.70;;;;;;;18.43;62.31;101172.13;10339263;28;97630;-79
2023/08/28 05:38:39;;;;;;;0.80;0.60;;;;;;;18.31;62.32;101162.19;10340699;28;96798;-79
2023/08/28 05:43:43;;;;;;;2.72;0.70;;;;;;;18.42;62.11;101154.44;10340655;28;96950;-79
2023/08/28 05:48:47;;;;;;;1.83;0.77;;;;;;;18.46;62.24;101156.88;10340648;28;96702;-79
2023/08/28 05:53:50;;;;;;;;;;;;;;;18.24;64.67;101148.34;10340944;28;96911;-79
2023/08/28 05:58:54;;;;;;;2.05;0.90;;;;;;;18.29;62.91;101150.75;10340525;28;97050;-80
2023/08/28 06:03:58;;;;;;;1.83;0.70;;;;;;;18.39;62.67;101151.94;10341045;28;96713;-80
2023/08/28 06:09:03;;;;;;;;;;;;;;;18.23;63.49;101167.94;10340293;28;97061;-79
2023/08/28 06:14:07;;;;;;;1.27;0.70;;;;;;;18.11;63.40;101166.84;10339656;28;96665;-79
2023/08/28 06:19:12;;;;;;;1.30;0.60;;;;;;;18.21;63.05;101166.31;10338373;28;97665;-79
2023/08/28 06:24:15;;;;;;;;;;;;;;;18.03;64.57;101171.75;10339681;28;96768;-78
2023/08/28 06:29:18;;;;;;;1.27;0.70;;;;;;;18.56;63.06;101176.72;10339080;28;96741;-79
2023/08/28 06:34:23;;;;;;;3.33;1.00;;;;;;;19.32;62.09;101175.69;10339112;28;96606;-79
2023/08/28 06:39:26;;;;;;;;;;;;;;;19.94;60.88;101188.69;10339611;28;96643;-79
2023/08/28 06:44:29;;;;;;;1.83;0.80;;;;;;;20.62;59.84;101200.31;10338317;28;98466;-79
2023/08/28 06:49:34;;;;;;;1.10;0.50;;;;;;;20.99;59.42;101199.56;10338190;28;96882;-79
2023/08/28 06:54:37;;;;;;;1.45;0.50;;;;;;;21.59;58.46;101199.88;10339522;28;97278;-79
2023/08/28 06:59:54;;;;;;;1.48;0.60;;;;;;;22.52;56.97;101192.22;10337549;28;96740;-79
2023/08/28 07:04:59;;;;;;;1.80;0.60;;;;;;;23.41;54.75;101196.97;10341884;28;96661;-79
2023/08/28 07:10:04;;;;;;;0.90;0.40;;;;;;;23.92;53.83;101193.88;10337180;28;97044;-79
2023/08/28 07:15:38;;;;;;;1.70;0.65;;;;;;;24.57;51.58;101192.94;10296312;28;96794;-79
2023/08/28 07:20:42;;;;;;;1.58;0.40;;;;;;;24.76;51.68;101184.19;10279951;28;96831;-79
2023/08/28 07:25:46;;;;;;;0.40;0.38;;;;;;;25.61;49.97;101175.91;10339505;28;96808;-79
2023/08/28 07:30:49;;;;;;;1.17;0.75;;;;;;;25.74;49.91;101187.31;10370395;28;96788;-79
2023/08/28 07:35:54;;;;;;;1.52;0.75;;;;;;;26.41;47.72;101181.34;10378144;28;97584;-79
2023/08/28 07:40:57;;;;;;;1.15;0.60;;;;;;;26.20;47.88;101178.72;10371946;28;97249;-79
2023/08/28 07:46:01;;;;;;;1.63;0.50;;;;;;;26.18;46.68;101177.16;10352798;28;99017;-79
2023/08/28 07:51:06;;;;;;;1.30;0.63;;;;;;;26.64;45.31;101180.13;10378033;28;97562;-79
2023/08/28 07:56:10;;;;;;;1.50;0.60;;;;;;;26.89;44.43;101172.31;10376304;28;97200;-80
2023/08/28 08:01:14;;;;;;;1.17;0.68;;;;;;;28.27;41.56;101186.06;10375774;28;96900;-79
2023/08/28 08:06:18;;;;;;;;;;;;;;;27.54;41.04;101192.31;10377664;28;96659;-79
2023/08/28 08:11:22;;;;;;;1.65;0.60;;;;;;;28.82;39.92;101188.56;10377371;28;96866;-79
2023/08/28 08:16:25;;;;;;;0.93;0.50;;;;;;;29.36;38.93;101184.81;10376756;28;97696;-79
2023/08/28 08:21:31;;;;;;;1.58;0.60;;;;;;;29.45;38.92;101188.44;10365362;28;97923;-79
2023/08/28 08:26:35;;;;;;;1.73;0.40;;;;;;;30.20;37.92;101180.41;10376610;28;97263;-79
2023/08/28 08:31:38;;;;;;;0.70;0.50;;;;;;;30.12;37.66;101174.97;10376739;28;97661;-79
2023/08/28 08:36:43;;;;;;;0.90;0.43;;;;;;;30.93;35.62;101168.72;10375916;28;96943;-79
2023/08/28 08:41:46;;;;;;;1.98;0.60;;;;;;;30.89;35.20;101177.34;10376323;28;96674;-79
2023/08/28 08:46:52;;;;;;;2.92;0.60;;;;;;;31.14;34.96;101174.50;10376192;28;96768;-79
2023/08/28 08:52:00;;;;;;;1.52;0.55;;;;;;;31.24;33.90;101158.88;10375236;28;96627;-79
2023/08/28 08:57:09;;;;;;;1.33;0.60;;;;;;;32.26;33.10;101164.38;10374557;28;97600;-79
2023/08/28 09:02:13;;;;;;;1.35;0.60;;;;;;;31.49;34.34;101153.41;10376050;28;97360;-80
2023/08/28 09:07:18;;;;;;;0.90;0.47;;;;;;;31.97;32.74;101164.16;10379591;28;96709;-79
2023/08/28 09:12:22;;;;;;;1.35;0.60;;;;;;;32.51;31.87;101162.41;10382510;28;97025;-79
2023/08/28 09:17:26;;;;;;;2.15;0.60;;;;;;;32.31;32.33;101157.38;10376203;28;98152;-79
2023/08/28 09:22:31;;;;;;;0.47;0.40;;;;;;;32.09;32.54;101160.03;10341488;28;97859;-79
2023/08/28 09:27:56;;;;;;;0.98;0.50;;;;;;;32.17;31.99;101155.41;10356239;28;96701;-79
2023/08/28 09:33:02;;;;;;;1.40;0.45;;;;;;;32.73;31.00;101139.75;10382423;28;97511;-79
2023/08/28 09:38:08;;;;;;;1.83;0.43;;;;;;;33.71;30.23;101136.81;10381755;28;96738;-80
2023/08/28 09:43:13;;;;;;;1.55;0.30;;;;;;;34.00;29.57;101130.53;10380079;28;96659;-80
2023/08/28 09:48:17;;;;;;;1.33;0.60;;;;;;;33.62;30.50;101135.22;10381481;28;96863;-81
2023/08/28 09:53:21;;;;;;;1.27;0.60;;;;;;;33.97;29.06;101133.66;10381998;28;97710;-80
2023/08/28 09:58:26;;;;;;;2.17;0.35;;;;;;;34.39;29.01;101136.47;10381608;28;97676;-80
2023/08/28 10:03:31;;;;;;;0.55;0.40;;;;;;;34.33;28.84;101129.91;10380410;28;97273;-80
2023/08/28 10:08:37;;;;;;;0.65;0.40;;;;;;;34.51;28.33;101129.47;10379442;28;97053;-80
2023/08/28 10:13:41;;;;;;;0.40;0.30;;;;;;;34.19;28.78;101127.19;10381151;28;97573;-80
2023/08/28 10:18:50;;;;;;;0.70;0.40;;;;;;;34.69;28.04;101123.56;10377505;28;97689;-80
2023/08/28 10:24:01;;;;;;;1.52;0.50;;;;;;;33.98;29.39;101127.13;10380652;28;96718;-80
2023/08/28 10:29:06;;;;;;;0.40;0.30;;;;;;;34.09;28.83;101121.19;10380546;28;97347;-80
2023/08/28 10:34:12;;;;;;;0.30;0.30;;;;;;;34.17;28.15;101112.88;10378319;28;97725;-81
2023/08/28 10:39:18;;;;;;;1.02;0.20;;;;;;;33.98;28.45;101106.13;10379932;28;96884;-81
2023/08/28 10:44:23;;;;;;;0.20;0.20;;;;;;;33.90;28.77;101091.69;10379947;28;96672;-80
2023/08/28 10:49:28;;;;;;;0.25;0.10;;;;;;;33.64;28.98;101091.34;10379429;28;97600;-80
2023/08/28 10:54:38;;;;;;;0.90;0.52;;;;;;;32.72;29.54;101078.09;10378741;28;96667;-79
2023/08/28 10:59:46;;;;;;;1.52;0.32;;;;;;;33.03;29.14;101071.53;10379651;28;96949;-81
2023/08/28 11:04:50;;;;;;;1.75;0.30;;;;;;;33.27;29.29;101063.09;10379322;28;97744;-81
2023/08/28 11:10:16;;;;;;;1.10;0.32;;;;;;;32.73;30.71;101055.22;10365870;28;97033;-80
2023/08/28 11:15:29;;;;;;;0.70;0.30;;;;;;;32.89;29.46;101063.31;10379021;28;97329;-80
2023/08/28 11:20:38;;;;;;;0.28;0.10;;;;;;;31.45;32.22;101046.78;10346467;28;96781;-80
2023/08/28 11:25:44;;;;;;;0.80;0.40;;;;;;;30.59;33.32;101048.41;10336761;28;96800;-80
2023/08/28 11:30:48;;;;;;;0.65;0.40;;;;;;;30.93;32.87;101027.34;10336027;28;96796;-81
2023/08/28 11:35:59;;;;;;;1.38;0.60;;;;;;;30.93;32.85;101013.75;10337273;28;96655;-80
2023/08/28 11:41:08;;;;;;;0.63;0.40;;;;;;;31.28;31.81;101007.91;10336980;28;96590;-80
2023/08/28 11:46:14;;;;;;;1.83;0.35;;;;;;;32.09;31.12;101004.78;10336926;28;96598;-79
2023/08/28 11:51:26;;;;;;;0.70;0.40;;;;;;;32.95;29.73;100986.22;10336419;28;96691;-80
2023/08/28 11:56:38;;;;;;;0.90;0.50;;;;;;;32.48;30.49;100986.47;10336528;28;97207;-80
2023/08/28 12:01:43;;;;;;;0.30;0.20;;;;;;;31.39;32.31;100967.75;10338145;28;96849;-80
2023/08/28 12:06:46;;;;;;;0.50;0.35;;;;;;;31.64;32.38;100963.84;10335863;28;96732;-79
2023/08/28 12:11:53;;;;;;;0.40;0.30;;;;;;;31.95;31.12;100954.69;10335797;28;96879;-80
2023/08/28 12:17:01;;;;;;;1.85;0.35;;;;;;;30.92;32.34;100948.69;10340978;28;96768;-79
2023/08/28 12:22:06;;;;;;;0.68;0.38;;;;;;;31.21;32.80;100948.91;10377252;28;97989;-79
2023/08/28 12:27:15;;;;;;;0.40;0.30;;;;;;;31.35;32.41;100934.59;10376445;28;97462;-79
2023/08/28 12:32:20;;;;;;;0.98;0.45;;;;;;;31.31;32.46;100935.97;10376691;28;96856;-81
2023/08/28 12:37:24;;;;;;;0.88;0.40;;;;;;;30.53;33.91;100920.53;10375376;28;96614;-81
2023/08/28 12:42:28;;;;;;;1.08;0.38;;;;;;;30.71;33.80;100919.34;10382436;28;96818;-80
2023/08/28 12:47:32;;;;;;;1.77;0.47;;;;;;;30.91;33.55;100911.63;10383463;28;97025;-81
2023/08/28 12:52:35;;;;;;;;;;;;;;;30.63;33.51;100919.31;10383541;28;96873;-79
2023/08/28 12:57:39;;;;;;;0.30;0.30;;;;;;;30.38;32.90;100905.97;10383252;28;96712;-80
2023/08/28 13:02:45;;;;;;;0.50;0.40;;;;;;;30.56;32.93;100904.72;10383218;28;96580;-81
2023/08/28 13:07:48;;;;;;;0.60;0.40;;;;;;;30.41;33.53;100901.03;10364456;28;97356;-80
2023/08/28 13:12:53;;;;;;;1.65;0.57;;;;;;;30.43;34.10;100892.72;10341496;28;97084;-80
2023/08/28 13:17:56;;;;;;;0.32;0.30;;;;;;;30.20;34.07;100893.41;10340974;28;96753;-81
2023/08/28 13:23:03;;;;;;;1.27;0.40;;;;;;;30.21;34.23;100895.09;10340817;28;96846;-81
2023/08/28 13:28:09;;;;;;;0.63;0.40;;;;;;;30.17;34.26;100884.75;10341547;28;96730;-79
2023/08/28 13:33:12;;;;;;;0.65;0.40;;;;;;;30.30;34.15;100866.06;10340818;28;96763;-79
2023/08/28 13:38:16;;;;;;;0.73;0.50;;;;;;;30.40;34.01;100874.03;10340803;28;97491;-80
2023/08/28 13:43:20;;;;;;;0.90;0.60;;;;;;;30.27;34.27;100861.84;10341767;28;97104;-81
2023/08/28 13:48:24;;;;;;;0.60;0.40;;;;;;;30.21;34.11;100853.53;10340055;28;96897;-79
2023/08/28 13:53:27;;;;;;;;;;;;;;;30.15;33.78;100841.50;10340167;28;97534;-80
2023/08/28 13:58:31;;;;;;;0.50;0.40;;;;;;;29.93;34.32;100830.47;10339437;28;97681;-81
2023/08/28 14:03:35;;;;;;;0.88;0.40;;;;;;;30.40;34.07;100833.31;10340047;28;96626;-80
2023/08/28 14:08:38;;;;;;;0.52;0.40;;;;;;;30.31;33.92;100824.31;10339529;28;96824;-81
2023/08/28 14:13:43;;;;;;;0.80;0.40;;;;;;;30.49;34.06;100824.13;10339409;28;96974;-80
2023/08/28 14:18:47;;;;;;;0.73;0.50;;;;;;;30.56;34.21;100825.94;10339028;28;96825;-80
2023/08/28 14:23:50;;;;;;;0.80;0.50;;;;;;;30.35;35.01;100827.53;10339421;28;97675;-81
2023/08/28 14:28:54;;;;;;;0.95;0.57;;;;;;;30.68;34.64;100816.41;10339349;28;96719;-81
2023/08/28 14:33:58;;;;;;;2.45;1.38;;;;;;;30.64;35.28;100814.22;10339627;28;96838;-81
2023/08/28 14:39:01;;;;;;;0.75;0.50;;;;;;;30.74;34.09;100796.69;10338595;28;96735;-79
2023/08/28 14:44:06;;;;;;;0.80;0.65;;;;;;;30.89;33.99;100797.63;10338430;28;96804;-81
2023/08/28 14:49:10;;;;;;;0.75;0.40;;;;;;;30.96;34.74;100793.19;10393491;22;96894;-80
2023/08/28 14:54:12;;;;;;;;;;;;;;;30.93;33.89;100793.53;10464092;27;97029;-79
2023/08/28 14:59:17;;;;;;;1.07;0.40;;;;;;;30.89;34.97;100783.19;10463488;27;96736;-79
2023/08/28 15:04:20;;;;;;;0.82;0.40;;;;;;;31.14;33.86;100782.03;10461824;27;97236;-81
2023/08/28 15:09:24;;;;;;;0.77;0.55;;;;;;;30.98;34.55;100763.94;10433507;27;96697;-80
2023/08/28 15:14:28;;;;;;;;;;;;;;;30.91;34.43;100778.44;10421083;28;96707;-79
2023/08/28 15:19:32;;;;;;;0.70;0.50;;;;;;;30.62;35.06;100768.19;10420790;28;96778;-81
2023/08/28 15:24:35;;;;;;;;;;;;;;;30.99;34.34;100779.22;10421847;27;96974;-81
2023/08/28 15:29:39;;;;;;;0.40;0.40;;;;;;;31.06;34.44;100766.59;10420289;28;96739;-80
2023/08/28 15:34:43;;;;;;;0.60;0.32;;;;;;;31.01;35.29;100757.31;10419783;28;97103;-80
2023/08/28 15:39:46;;;;;;;;;;;;;;;30.69;35.52;100765.63;10419360;28;97620;-79
2023/08/28 15:44:51;;;;;;;0.40;0.30;;;;;;;30.77;35.48;100752.00;10420184;27;97269;-79
2023/08/28 15:49:54;;;;;;;0.52;0.47;;;;;;;30.81;36.39;100751.47;10418626;28;97693;-81
2023/08/28 15:54:57;;;;;;;;;;;;;;;30.53;35.90;100747.50;10419723;28;96608;-79
2023/08/28 16:00:02;;;;;;;1.47;0.50;;;;;;;30.27;36.28;100746.94;10443330;27;97395;-80
2023/08/28 16:05:08;;;;;;;0.98;0.47;;;;;;;30.23;36.67;100753.72;10460796;27;97657;-79
2023/08/28 16:10:11;;;;;;;1.00;0.40;;;;;;;30.05;36.59;100751.22;10425867;27;97161;-80
2023/08/28 16:15:15;;;;;;;;;;;;;;;29.99;36.84;100751.91;10428909;27;97039;-80
2023/08/28 16:20:19;;;;;;;3.28;0.95;;;;;;;29.55;39.75;100745.19;10460380;27;96984;-81
2023/08/28 16:25:22;;;;;;;2.20;1.00;;;;;;;29.35;40.35;100746.50;10460423;27;96950;-79
2023/08/28 16:30:28;;;;;;;1.50;0.80;;;;;;;29.10;40.79;100744.78;10459442;27;97616;-80
2023/08/28 16:35:31;;;;;;;2.30;0.88;;;;;;;28.91;42.03;100740.50;10459324;27;97906;-80
2023/08/28 16:40:34;;;;;;;2.00;1.08;;;;;;;28.59;43.03;100734.97;10459804;27;96686;-80
2023/08/28 16:45:39;;;;;;;1.48;0.70;;;;;;;28.40;43.72;100743.34;10459694;27;96643;-79
2023/08/28 16:50:44;;;;;;;2.33;1.00;;;;;;;28.31;43.96;100735.38;10422488;27;97191;-80
2023/08/28 16:55:48;;;;;;;1.50;0.90;;;;;;;28.22;43.98;100745.25;10417475;27;96665;-79
2023/08/28 17:00:53;;;;;;;1.60;0.90;;;;;;;28.07;44.82;100736.91;10417730;28;97491;-79
2023/08/28 17:05:57;;;;;;;1.92;0.98;;;;;;;28.00;44.88;100745.81;10418482;27;96734;-80
2023/08/28 17:11:00;;;;;;;2.88;1.10;;;;;;;27.94;45.06;100747.28;10417427;28;97538;-80
2023/08/28 17:16:05;;;;;;;2.10;1.05;;;;;;;27.89;45.55;100733.41;10416724;27;96943;-79
2023/08/28 17:21:10;;;;;;;1.67;0.88;;;;;;;27.86;45.59;100749.09;10415716;28;96726;-81
2023/08/28 17:26:13;;;;;;;1.50;0.80;;;;;;;27.87;45.92;100750.81;10418627;27;97235;-79
2023/08/28 17:31:18;;;;;;;3.30;1.08;;;;;;;27.64;46.70;100757.69;10424198;27;97044;-81
2023/08/28 17:36:25;;;;;;;2.05;0.73;;;;;;;27.52;47.37;100764.38;10423879;28;97154;-80
2023/08/28 17:41:28;;;;;;;2.05;0.77;;;;;;;27.53;47.13;100766.91;10424190;27;96802;-78
2023/08/28 17:46:33;;;;;;;2.83;1.20;;;;;;;27.41;47.53;100768.16;10423009;27;96726;-79
2023/08/28 17:51:38;;;;;;;1.55;1.00;;;;;;;27.35;47.68;100774.19;10423691;28;96941;-80
2023/08/28 17:56:43;;;;;;;1.83;0.80;;;;;;;27.21;48.24;100780.16;10424628;27;97479;-80
2023/08/28 18:01:49;;;;;;;1.17;0.73;;;;;;;27.06;49.14;100783.53;10423081;27;96721;-78
2023/08/28 18:06:53;;;;;;;1.50;0.95;;;;;;;27.25;48.10;100789.63;10422663;27;96705;-78
2023/08/28 18:11:57;;;;;;;2.78;0.82;;;;;;;27.26;48.02;100785.94;10421474;28;96770;-78
2023/08/28 18:17:02;;;;;;;2.85;1.00;;;;;;;27.30;48.20;100795.44;10422796;27;97564;-78
2023/08/28 18:22:05;;;;;;;2.53;1.00;;;;;;;27.11;48.83;100797.44;10422449;28;97870;-78
2023/08/28 18:27:10;;;;;;;1.95;0.70;;;;;;;26.92;49.18;100795.69;10422240;27;96680;-78
2023/08/28 18:32:15;;;;;;;1.38;0.65;;;;;;;26.78;49.96;100798.88;10422611;27;97091;-78
2023/08/28 18:37:19;;;;;;;2.50;0.98;;;;;;;26.73;49.52;100798.50;10421515;27;96909;-78
2023/08/28 18:42:22;;;;;;;1.45;0.90;;;;;;;26.58;50.52;100805.38;10421728;28;96700;-79
2023/08/28 18:47:27;;;;;;;1.33;0.75;;;;;;;26.41;51.04;100816.94;10422159;27;97407;-78
2023/08/28 18:52:31;;;;;;;1.70;0.90;;;;;;;26.27;51.33;100817.41;10421017;27;97643;-79
2023/08/28 18:57:35;;;;;;;1.30;0.93;;;;;;;26.15;51.59;100818.56;10421246;27;96681;-79
2023/08/28 19:02:40;;;;;;;1.65;0.82;;;;;;;25.99;51.91;100821.88;10420153;27;96561;-80
2023/08/28 19:07:44;;;;;;;2.30;1.08;;;;;;;25.89;52.37;100826.44;10422187;27;96696;-79
2023/08/28 19:12:48;;;;;;;3.25;1.10;;;;;;;25.86;52.20;100834.81;10420667;28;96869;-79
2023/08/28 19:17:52;;;;;;;1.67;1.00;;;;;;;25.68;53.04;100841.88;10420226;27;97500;-78
2023/08/28 19:22:56;;;;;;;2.63;1.20;;;;;;;25.70;52.57;100848.03;10435635;27;96882;-78
2023/08/28 19:27:59;;;;;;;2.63;0.90;;;;;;;25.62;52.69;100845.16;10462313;27;96955;-78
2023/08/28 19:33:04;;;;;;;3.72;1.10;;;;;;;25.68;52.42;100850.84;10462119;27;96653;-78
2023/08/28 19:38:08;;;;;;;2.08;1.17;;;;;;;25.64;52.67;100849.41;10461676;27;96678;-78
2023/08/28 19:43:11;;;;;;;2.53;1.10;;;;;;;25.51;52.90;100859.63;10461931;27;97861;-78
2023/08/28 19:48:16;;;;;;;1.53;1.30;;;;;;;25.45;53.10;100867.44;10443384;27;96908;-78
2023/08/28 19:53:19;;;;;;;3.70;1.30;;;;;;;25.34;53.41;100870.25;10418010;27;97181;-78
2023/08/28 19:58:22;;;;;;;1.40;0.97;;;;;;;25.34;53.44;100871.09;10446483;27;96766;-78
2023/08/28 20:03:27;;;;;;;2.43;1.20;;;;;;;25.28;53.58;100878.88;10461287;27;97278;-78
2023/08/28 20:08:31;;;;;;;1.35;1.00;;;;;;;25.21;53.62;100880.44;10461074;27;96663;-78
2023/08/28 20:13:34;;;;;;;2.43;1.13;;;;;;;25.16;53.79;100890.75;10459994;27;96855;-78
2023/08/28 20:18:39;;;;;;;2.77;1.40;;;;;;;25.10;53.67;100894.00;10460559;27;96861;-78
2023/08/28 20:23:42;;;;;;;2.80;1.30;;;;;;;25.11;53.82;100893.00;10460619;27;96688;-78
2023/08/28 20:28:45;;;;;;;2.47;1.27;;;;;;;25.00;53.99;100888.59;10460991;27;97620;-78
2023/08/28 20:33:50;;;;;;;2.50;1.70;;;;;;;24.71;54.59;100891.16;10459565;27;97627;-78
2023/08/28 20:38:54;;;;;;;3.15;2.20;;;;;;;24.68;54.72;100887.88;10460019;27;96703;-78
2023/08/28 20:43:58;;;;;;;4.25;2.20;;;;;;;24.70;54.60;100889.47;10459075;27;96667;-78
2023/08/28 20:49:03;;;;;;;4.13;2.10;;;;;;;24.58;54.95;100901.28;10434205;27;96896;-78
2023/08/28 20:54:07;;;;;;;2.88;1.98;;;;;;;24.54;55.23;100909.75;10417300;27;97545;-78
2023/08/28 20:59:11;;;;;;;;;;;;;;;24.41;56.44;100911.81;10418185;28;96634;-78
2023/08/28 21:04:15;;;;;;;3.17;1.80;;;;;;;24.46;55.41;100914.97;10425103;27;96761;-78
2023/08/28 21:09:19;;;;;;;3.33;2.15;;;;;;;24.31;56.06;100924.34;10424957;28;96844;-78
2023/08/28 21:14:22;;;;;;;2.63;1.70;;;;;;;24.27;56.24;100915.63;10424526;27;97204;-78
2023/08/28 21:19:29;;;;;;;5.00;2.00;;;;;;;24.10;56.69;100923.47;10424899;28;97172;-78
2023/08/28 21:24:32;;;;;;;3.00;1.80;;;;;;;24.00;56.94;100923.38;10424746;27;96585;-78
2023/08/28 21:29:36;;;;;;;3.30;1.77;;;;;;;23.98;57.01;100932.56;10424173;28;96734;-79
2023/08/28 21:34:40;;;;;;;3.27;1.63;;;;;;;23.99;56.99;100926.19;10422892;27;96769;-79
2023/08/28 21:39:44;;;;;;;2.38;1.70;;;;;;;23.99;56.96;100932.44;10424790;27;96903;-78
2023/08/28 21:44:47;;;;;;;2.90;1.77;;;;;;;23.90;57.25;100926.97;10424003;27;97920;-78
2023/08/28 21:49:52;;;;;;;3.53;1.80;;;;;;;23.76;57.62;100927.28;10422317;28;96745;-78
2023/08/28 21:54:55;;;;;;;3.42;1.77;;;;;;;23.67;58.16;100928.88;10430192;27;96660;-78
2023/08/28 21:59:59;;;;;;;2.53;1.60;;;;;;;23.45;58.49;100929.78;10465011;27;96956;-79
2023/08/28 22:05:04;;;;;;;3.08;2.10;;;;;;;23.41;58.57;100928.31;10465049;27;96665;-78
2023/08/28 22:10:08;;;;;;;2.65;1.70;;;;;;;23.48;58.20;100920.59;10439014;27;96797;-78
2023/08/28 22:15:13;;;;;;;2.90;2.15;;;;;;;23.62;57.96;100913.16;10456104;27;97409;-79
2023/08/28 22:20:18;;;;;;;3.67;1.48;;;;;;;23.49;58.16;100904.34;10464498;27;97062;-78
2023/08/28 22:25:21;;;;;;;3.50;1.88;;;;;;;23.38;58.11;100907.09;10462943;27;97266;-79
2023/08/28 22:30:25;;;;;;;2.65;1.80;;;;;;;23.31;58.45;100908.56;10463573;27;97770;-78
2023/08/28 22:35:31;;;;;;;3.20;2.33;;;;;;;23.02;58.93;100907.41;10463669;27;96688;-78
2023/08/28 22:40:34;;;;;;;3.65;2.20;;;;;;;22.81;59.53;100906.44;10463821;27;96902;-78
2023/08/28 22:45:38;;;;;;;3.00;2.07;;;;;;;23.11;58.89;100903.13;10462086;27;97217;-78
2023/08/28 22:50:42;;;;;;;2.92;1.88;;;;;;;23.00;59.25;100903.13;10423810;27;97447;-79
2023/08/28 22:55:46;;;;;;;2.53;1.92;;;;;;;22.88;59.37;100898.75;10421188;28;97746;-78
2023/08/28 23:00:51;;;;;;;3.10;2.40;;;;;;;22.51;60.41;100909.69;10421622;27;96794;-78
2023/08/28 23:05:56;;;;;;;5.80;2.80;;;;;;;22.63;60.00;100899.81;10452991;27;96675;-78
2023/08/28 23:10:59;;;;;;;3.20;2.45;;;;;;;22.63;59.85;100898.97;10462636;27;96742;-78
2023/08/28 23:16:03;;;;;;;3.67;3.07;;;;;;;22.64;59.76;100893.47;10461290;27;97034;-78
2023/08/28 23:21:09;;;;;;;3.47;2.40;;;;;;;22.16;60.95;100897.31;10461238;27;97150;-78
2023/08/28 23:26:12;;;;;;;3.05;2.42;;;;;;;22.09;61.41;100901.44;10461220;27;97685;-79
2023/08/28 23:31:16;;;;;;;3.23;2.47;;;;;;;22.39;60.58;100894.56;10462118;27;96677;-78